createdAt,value
2022-08-10T00:01:34.405Z,100416.50
2022-08-10T00:04:02.119Z,100408.31
2022-08-10T00:06:29.461Z,100399.84
2022-08-10T00:08:56.529Z,100414.81
2022-08-10T00:11:23.922Z,100411.25
2022-08-10T00:13:51.731Z,100417.81
2022-08-10T00:16:18.968Z,100408.25
2022-08-10T00:18:45.949Z,100406.56
2022-08-10T00:21:12.973Z,100410.97
2022-08-10T00:23:40.083Z,100406.53
2022-08-10T00:26:07.685Z,100407.03
2022-08-10T00:28:34.680Z,100404.84
2022-08-10T00:31:01.920Z,100396.97
2022-08-10T00:33:28.962Z,100398.31
2022-08-10T00:35:56.057Z,100398.84
2022-08-10T00:38:23.297Z,100409.16
2022-08-10T00:40:50.470Z,100405.38
2022-08-10T00:43:23.255Z,100400.06
2022-08-10T00:45:59.027Z,100399.34
2022-08-10T00:48:31.139Z,100409.06
2022-08-10T00:50:59.940Z,100417.78
2022-08-10T00:53:30.216Z,100417.78
2022-08-10T00:57:12.244Z,100419.97
2022-08-10T00:58:49.094Z,100410.41
2022-08-10T01:02:07.706Z,100407.38
2022-08-10T01:04:57.268Z,100406.84
2022-08-10T01:07:32.475Z,100411.19
2022-08-10T01:10:15.753Z,100406.25
2022-08-10T01:13:09.753Z,100414.94
2022-08-10T01:15:57.337Z,100414.41
2022-08-10T01:18:37.544Z,100407.34
2022-08-10T01:21:37.960Z,100408.59
2022-08-10T01:24:45.106Z,100410.81
2022-08-10T01:27:27.283Z,100414.28
2022-08-10T01:30:11.991Z,100415.66
2022-08-10T01:33:03.340Z,100412.72
2022-08-10T01:35:59.738Z,100410.22
2022-08-10T01:38:33.992Z,100405.84
2022-08-10T01:41:24.381Z,100409.63
2022-08-10T01:44:08.484Z,100409.84
2022-08-10T01:46:39.237Z,100404.38
2022-08-10T01:49:11.716Z,100402.75
2022-08-10T01:51:52.509Z,100409.81
2022-08-10T01:54:24.266Z,100414.66
2022-08-10T01:56:55.535Z,100412.47
2022-08-10T01:59:34.937Z,100415.69
2022-08-10T02:02:14.625Z,100416.09
2022-08-10T02:04:47.635Z,100412.31
2022-08-10T02:07:20.717Z,100420.72
2022-08-10T02:09:53.293Z,100417.19
2022-08-10T02:12:25.989Z,100416.69
2022-08-10T02:14:58.867Z,100422.06
2022-08-10T02:17:59.941Z,100419.34
2022-08-10T02:20:48.630Z,100422.59
2022-08-10T02:23:27.544Z,100425.88
2022-08-10T02:25:58.446Z,100437.25
2022-08-10T02:28:30.300Z,100431.97
2022-08-10T02:31:11.491Z,100430.69
2022-08-10T02:33:56.484Z,100431.16
2022-08-10T02:36:29.614Z,100432.25
2022-08-10T02:39:01.874Z,100439.50
2022-08-10T02:45:02.706Z,100428.84
2022-08-10T02:45:25.719Z,100444.59
2022-08-10T02:48:24.412Z,100439.53
2022-08-10T02:51:01.086Z,100426.00
2022-08-10T02:53:55.458Z,100431.13
2022-08-10T02:56:41.808Z,100438.38
2022-08-10T02:59:17.484Z,100432.94
2022-08-10T03:01:49.293Z,100424.16
2022-08-10T03:04:57.258Z,100424.16
2022-08-10T03:07:20.112Z,100414.53
2022-08-10T03:10:13.216Z,100426.25
2022-08-10T03:12:44.015Z,100420.25
2022-08-10T03:15:15.970Z,100430.84
2022-08-10T03:17:56.746Z,100419.41
2022-08-10T03:20:37.651Z,100427.56
2022-08-10T03:23:14.837Z,100416.69
2022-08-10T03:25:53.709Z,100423.06
2022-08-10T03:28:28.057Z,100420.03
2022-08-10T03:30:57.366Z,100428.75
2022-08-10T03:33:29.200Z,100428.75
2022-08-10T03:36:42.975Z,100423.84
2022-08-10T03:38:46.090Z,100433.03
2022-08-10T03:41:16.729Z,100439.50
2022-08-10T03:43:48.908Z,100441.16
2022-08-10T03:46:19.830Z,100432.41
2022-08-10T03:48:50.236Z,100438.66
2022-08-10T03:51:21.714Z,100441.47
2022-08-10T03:54:04.688Z,100442.28
2022-08-10T03:56:39.697Z,100452.25
2022-08-10T03:59:11.244Z,100449.53
2022-08-10T04:02:52.870Z,100444.66
2022-08-10T04:04:26.253Z,100457.94
2022-08-10T04:06:56.967Z,100448.38
2022-08-10T04:09:53.560Z,100445.91
2022-08-10T04:12:24.273Z,100455.63
2022-08-10T04:14:53.243Z,100460.56
2022-08-10T04:18:03.409Z,100465.34
2022-08-10T04:20:44.585Z,100463.34
2022-08-10T04:23:23.057Z,100463.53
2022-08-10T04:25:51.848Z,100469.13
2022-08-10T04:28:19.456Z,100460.50
2022-08-10T04:30:50.023Z,100470.84
2022-08-10T04:33:20.674Z,100460.50
2022-08-10T04:35:48.904Z,100456.13
2022-08-10T04:38:18.158Z,100461.06
2022-08-10T04:40:46.234Z,100457.78
2022-08-10T04:43:14.100Z,100459.41
2022-08-10T04:45:48.971Z,100461.47
2022-08-10T04:48:39.992Z,100455.44
2022-08-10T04:51:18.513Z,100453.81
2022-08-10T04:54:04.863Z,100459.84
2022-08-10T04:56:39.153Z,100464.19
2022-08-10T04:59:09.518Z,100467.97
2022-08-10T05:02:28.776Z,100457.13
2022-08-10T05:04:34.789Z,100459.22
2022-08-10T05:07:16.082Z,100460.31
2022-08-10T05:10:03.945Z,100462.56
2022-08-10T05:12:38.814Z,100461.94
2022-08-10T05:15:08.044Z,100467.31
2022-08-10T05:17:36.219Z,100463.69
2022-08-10T05:20:09.398Z,100465.66
2022-08-10T05:22:43.055Z,100466.25
2022-08-10T05:25:16.859Z,100473.22
2022-08-10T05:27:46.037Z,100471.06
2022-08-10T05:30:20.439Z,100472.16
2022-08-10T05:32:57.917Z,100474.03
2022-08-10T05:35:57.782Z,100477.31
2022-08-10T05:38:17.808Z,100476.50
2022-08-10T05:40:47.105Z,100485.25
2022-08-10T05:43:20.157Z,100481.72
2022-08-10T05:46:19.635Z,100484.66
2022-08-10T05:48:54.601Z,100483.09
2022-08-10T05:51:27.273Z,100486.38
2022-08-10T05:54:02.724Z,100489.19
2022-08-10T05:56:56.215Z,100496.38
2022-08-10T06:00:30.882Z,100488.88
2022-08-10T06:02:48.800Z,100490.34
2022-08-10T06:05:27.572Z,100491.59
2022-08-10T06:08:12.792Z,100483.88
2022-08-10T06:12:16.477Z,100484.84
2022-08-10T06:13:59.884Z,100485.28
2022-08-10T06:16:40.657Z,100485.91
2022-08-10T06:19:07.775Z,100491.25
2022-08-10T06:21:36.570Z,100495.47
2022-08-10T06:24:05.288Z,100499.50
2022-08-10T06:26:32.397Z,100497.72
2022-08-10T06:29:10.850Z,100497.53
2022-08-10T06:31:49.786Z,100497.44
2022-08-10T06:34:29.166Z,100497.25
2022-08-10T06:36:59.985Z,100498.97
2022-08-10T06:39:36.329Z,100496.84
2022-08-10T06:42:20.275Z,100493.47
2022-08-10T06:45:15.401Z,100498.16
2022-08-10T06:48:05.959Z,100497.94
2022-08-10T06:50:56.373Z,100485.22
2022-08-10T06:53:52.735Z,100488.53
2022-08-10T06:56:36.076Z,100502.00
2022-08-10T06:59:28.132Z,100498.28
2022-08-10T07:02:03.524Z,100499.88
2022-08-10T07:04:40.369Z,100504.88
2022-08-10T07:07:09.410Z,100504.66
2022-08-10T07:09:41.376Z,100499.63
2022-08-10T07:12:09.832Z,100495.28
2022-08-10T07:14:45.972Z,100500.34
2022-08-10T07:17:17.087Z,100492.44
2022-08-10T07:19:50.213Z,100502.53
2022-08-10T07:23:27.431Z,100497.69
2022-08-10T07:25:19.615Z,100503.69
2022-08-10T07:27:59.542Z,100498.78
2022-08-10T07:30:32.040Z,100498.88
2022-08-10T07:33:02.440Z,100496.16
2022-08-10T07:35:41.901Z,100498.41
2022-08-10T07:38:30.071Z,100495.69
2022-08-10T07:41:02.677Z,100503.03
2022-08-10T07:43:37.119Z,100511.00
2022-08-10T07:46:09.601Z,100510.47
2022-08-10T07:48:47.326Z,100503.34
2022-08-10T07:51:16.393Z,100508.81
2022-08-10T07:53:51.075Z,100509.91
2022-08-10T07:56:47.329Z,100505.00
2022-08-10T07:59:17.603Z,100517.53
2022-08-10T08:01:54.420Z,100515.34
2022-08-10T08:04:24.210Z,100508.75
2022-08-10T08:06:53.582Z,100510.13
2022-08-10T08:09:21.981Z,100514.47
2022-08-10T08:11:50.479Z,100510.94
2022-08-10T08:14:19.255Z,100521.28
2022-08-10T08:16:50.229Z,100506.50
2022-08-10T08:19:33.654Z,100513.31
2022-08-10T08:24:15.032Z,100514.06
2022-08-10T08:24:56.712Z,100509.34
2022-08-10T08:27:26.241Z,100513.44
2022-08-10T08:29:54.081Z,100513.41
2022-08-10T08:32:26.873Z,100508.97
2022-08-10T08:35:02.466Z,100505.66
2022-08-10T08:38:31.709Z,100500.69
2022-08-10T08:40:29.583Z,100509.09
2022-08-10T08:43:59.253Z,100513.66
2022-08-10T08:48:02.116Z,100500.44
2022-08-10T08:50:24.458Z,100502.84
2022-08-10T08:53:16.819Z,100494.25
2022-08-10T08:56:05.722Z,100493.56
2022-08-10T08:59:10.259Z,100497.25
2022-08-10T09:02:27.631Z,100493.34
2022-08-10T09:06:00.167Z,100494.34
2022-08-10T09:08:51.337Z,100508.69
2022-08-10T09:11:38.326Z,100501.34
2022-08-10T09:14:25.563Z,100494.78
2022-08-10T09:17:16.156Z,100486.19
2022-08-10T09:19:48.449Z,100496.78
2022-08-10T09:22:46.660Z,100482.31
2022-08-10T09:25:15.267Z,100481.22
2022-08-10T09:28:27.042Z,100487.41
2022-08-10T09:31:22.013Z,100489.44
2022-08-10T09:36:29.860Z,100488.59
2022-08-10T09:37:14.346Z,100485.03
2022-08-10T09:40:56.253Z,100479.09
2022-08-10T09:43:25.867Z,100477.53
2022-08-10T09:46:11.927Z,100478.84
2022-08-10T09:48:50.238Z,100474.28
2022-08-10T09:52:09.399Z,100471.53
2022-08-10T09:54:54.753Z,100480.06
2022-08-10T09:57:56.850Z,100479.34
2022-08-10T10:00:34.724Z,100468.66
2022-08-10T10:03:26.054Z,100468.69
2022-08-10T10:06:33.083Z,100457.13
2022-08-10T10:09:30.091Z,100465.06
2022-08-10T10:12:23.850Z,100446.72
2022-08-10T10:15:29.019Z,100450.91
2022-08-10T10:18:07.775Z,100458.16
2022-08-10T10:21:24.200Z,100451.44
2022-08-10T10:24:40.659Z,100445.22
2022-08-10T10:27:41.798Z,100453.88
2022-08-10T10:30:11.556Z,100429.09
2022-08-10T10:33:13.032Z,100431.84
2022-08-10T10:35:55.597Z,100429.16
2022-08-10T10:38:34.283Z,100426.81
2022-08-10T10:41:56.122Z,100417.03
2022-08-10T10:45:00.374Z,100420.22
2022-08-10T10:48:01.156Z,100424.19
2022-08-10T10:51:18.439Z,100412.75
2022-08-10T10:54:25.051Z,100407.13
2022-08-10T10:57:07.668Z,100409.56
2022-08-10T10:59:55.641Z,100408.97
2022-08-10T11:03:13.164Z,100404.69
2022-08-10T11:06:02.022Z,100403.78
2022-08-10T11:08:36.400Z,100409.28
2022-08-10T11:11:59.652Z,100407.41
2022-08-10T11:14:37.857Z,100401.53
2022-08-10T11:17:27.104Z,100410.53
2022-08-10T11:20:22.276Z,100402.03
2022-08-10T11:23:20.339Z,100402.13
2022-08-10T11:26:13.533Z,100407.88
2022-08-10T11:28:54.675Z,100399.72
2022-08-10T11:31:44.545Z,100408.13
2022-08-10T11:34:46.615Z,100401.94
2022-08-10T11:38:32.668Z,100393.22
2022-08-10T11:40:44.674Z,100398.09
2022-08-10T11:43:24.000Z,100381.63
2022-08-10T11:46:09.752Z,100389.34
2022-08-10T11:49:25.476Z,100380.94
2022-08-10T11:52:03.339Z,100388.75
2022-08-10T11:54:53.540Z,100385.97
2022-08-10T11:57:29.233Z,100367.03
2022-08-10T12:00:16.212Z,100383.19
2022-08-10T12:03:01.822Z,100386.16
2022-08-10T12:05:52.520Z,100373.03
2022-08-10T12:10:03.079Z,100369.72
2022-08-10T12:11:24.653Z,100369.91
2022-08-10T12:14:21.978Z,100383.34
2022-08-10T12:16:59.408Z,100373.06
2022-08-10T12:20:27.718Z,100373.34
2022-08-10T12:23:04.748Z,100356.63
2022-08-10T12:25:56.617Z,100350.06
2022-08-10T12:28:52.196Z,100349.88
2022-08-10T12:31:40.142Z,100350.13
2022-08-10T12:34:34.448Z,100352.19
2022-08-10T12:37:29.945Z,100353.50
2022-08-10T12:40:35.047Z,100346.72
2022-08-10T12:44:07.338Z,100341.72
2022-08-10T12:46:48.877Z,100340.03
2022-08-10T12:50:20.059Z,100327.38
2022-08-10T12:53:17.353Z,100320.94
2022-08-10T12:55:47.718Z,100322.75
2022-08-10T12:59:00.208Z,100329.25
2022-08-10T13:01:16.149Z,100311.50
2022-08-10T13:04:22.303Z,100320.09
2022-08-10T13:06:50.376Z,100314.13
2022-08-10T13:09:27.064Z,100325.13
2022-08-10T13:12:35.449Z,100312.06
2022-08-10T13:15:45.823Z,100310.13
2022-08-10T13:18:18.702Z,100313.31
2022-08-10T13:20:55.749Z,100304.38
2022-08-10T13:23:28.903Z,100292.09
2022-08-10T13:26:00.673Z,100299.63
2022-08-10T13:28:45.696Z,100286.56
2022-08-10T13:31:18.641Z,100286.59
2022-08-10T13:34:39.510Z,100292.78
2022-08-10T13:36:55.826Z,100291.28
2022-08-10T13:39:27.096Z,100286.78
2022-08-10T13:41:56.205Z,100270.38
2022-08-10T13:44:46.506Z,100280.38
2022-08-10T13:47:18.288Z,100267.34
2022-08-10T13:49:47.197Z,100268.75
2022-08-10T13:52:22.258Z,100260.53
2022-08-10T13:54:51.831Z,100276.03
2022-08-10T13:57:46.353Z,100264.22
2022-08-10T14:00:35.420Z,100267.81
2022-08-10T14:03:16.864Z,100266.28
2022-08-10T14:05:53.889Z,100271.81
2022-08-10T14:08:26.437Z,100255.72
2022-08-10T14:11:08.524Z,100260.44
2022-08-10T14:13:45.888Z,100267.81
2022-08-10T14:16:14.074Z,100269.22
2022-08-10T14:18:44.705Z,100258.03
2022-08-10T14:21:13.988Z,100240.97
2022-08-10T14:23:52.197Z,100241.28
2022-08-10T14:26:31.427Z,100246.00
2022-08-10T14:29:19.635Z,100252.00
2022-08-10T14:32:01.892Z,100240.97
2022-08-10T14:36:14.858Z,100242.56
2022-08-10T14:37:38.577Z,100235.56
2022-08-10T14:40:15.639Z,100242.91
2022-08-10T14:42:50.845Z,100236.66
2022-08-10T14:45:36.991Z,100236.41
2022-08-10T14:48:31.895Z,100228.22
2022-08-10T14:51:02.752Z,100229.69
2022-08-10T14:53:36.852Z,100231.06
2022-08-10T14:56:14.788Z,100227.66
2022-08-10T14:59:06.133Z,100222.63
2022-08-10T15:02:00.430Z,100227.47
2022-08-10T15:04:28.463Z,100229.09
2022-08-10T15:07:33.702Z,100220.41
2022-08-10T15:10:04.435Z,100233.25
2022-08-10T15:12:38.857Z,100229.91
2022-08-10T15:15:16.458Z,100227.47
2022-08-10T15:17:53.081Z,100221.63
2022-08-10T15:20:24.179Z,100225.31
2022-08-10T15:22:55.764Z,100219.97
2022-08-10T15:25:27.108Z,100215.63
2022-08-10T15:28:06.461Z,100208.63
2022-08-10T15:30:45.187Z,100203.31
2022-08-10T15:34:01.954Z,100199.75
2022-08-10T15:36:45.180Z,100197.72
2022-08-10T15:40:25.913Z,100187.56
2022-08-10T15:42:21.543Z,100195.84
2022-08-10T15:44:53.450Z,100191.63
2022-08-10T15:47:45.117Z,100191.81
2022-08-10T15:50:28.869Z,100181.72
2022-08-10T15:53:15.555Z,100186.78
2022-08-10T15:55:57.410Z,100181.47
2022-08-10T15:59:25.051Z,100179.63
2022-08-10T16:02:17.167Z,100175.19
2022-08-10T16:05:12.783Z,100179.63
2022-08-10T16:07:51.028Z,100172.78
2022-08-10T16:10:38.970Z,100180.44
2022-08-10T16:13:59.685Z,100171.47
2022-08-10T16:16:01.838Z,100167.63
2022-08-10T16:18:34.054Z,100170.53
2022-08-10T16:21:08.229Z,100164.63
2022-08-10T16:23:45.386Z,100158.56
2022-08-10T16:26:42.826Z,100162.09
2022-08-10T16:29:19.728Z,100162.84
2022-08-10T16:31:54.928Z,100158.66
2022-08-10T16:34:25.334Z,100158.03
2022-08-10T16:37:11.390Z,100151.06
2022-08-10T16:39:58.234Z,100149.75
2022-08-10T16:42:32.706Z,100148.91
2022-08-10T16:45:14.985Z,100154.41
2022-08-10T16:47:49.183Z,100145.41
2022-08-10T16:50:29.361Z,100149.66
2022-08-10T16:53:01.844Z,100155.63
2022-08-10T16:55:49.041Z,100155.88
2022-08-10T16:58:38.084Z,100147.25
2022-08-10T17:01:20.084Z,100147.94
2022-08-10T17:04:08.083Z,100150.00
2022-08-10T17:06:53.861Z,100144.41
2022-08-10T17:09:33.813Z,100145.84
2022-08-10T17:12:11.331Z,100147.97
2022-08-10T17:14:41.644Z,100142.16
2022-08-10T17:17:34.516Z,100147.84
2022-08-10T17:20:30.419Z,100145.19
2022-08-10T17:22:57.647Z,100138.44
2022-08-10T17:25:46.714Z,100148.97
2022-08-10T17:28:35.504Z,100147.03
2022-08-10T17:31:24.118Z,100143.50
2022-08-10T17:34:20.890Z,100153.25
2022-08-10T17:36:59.182Z,100145.94
2022-08-10T17:39:46.728Z,100143.66
2022-08-10T17:42:20.786Z,100142.72
2022-08-10T17:44:52.789Z,100143.22
2022-08-10T17:47:26.346Z,100154.06
2022-08-10T17:50:00.071Z,100148.34
2022-08-10T17:52:32.214Z,100143.91
2022-08-10T17:55:06.945Z,100150.53
2022-08-10T17:57:37.700Z,100138.16
2022-08-10T18:00:13.598Z,100141.72
2022-08-10T18:02:46.868Z,100139.81
2022-08-10T18:05:15.134Z,100141.69
2022-08-10T18:07:51.510Z,100142.78
2022-08-10T18:10:22.187Z,100147.09
2022-08-10T18:12:56.240Z,100144.47
2022-08-10T18:15:27.886Z,100145.06
2022-08-10T18:18:02.444Z,100138.59
2022-08-10T18:20:38.772Z,100145.34
2022-08-10T18:23:07.818Z,100143.31
2022-08-10T18:25:39.513Z,100147.31
2022-08-10T18:28:14.852Z,100151.31
2022-08-10T18:30:51.895Z,100149.09
2022-08-10T18:33:26.602Z,100151.56
2022-08-10T18:35:55.385Z,100148.91
2022-08-10T18:38:24.723Z,100157.09
2022-08-10T18:40:59.277Z,100155.66
2022-08-10T18:44:06.270Z,100159.53
2022-08-10T18:46:27.786Z,100160.88
2022-08-10T18:49:13.300Z,100157.50
2022-08-10T18:51:46.729Z,100162.09
2022-08-10T18:54:39.064Z,100165.81
2022-08-10T18:58:01.187Z,100173.72
2022-08-10T19:01:08.523Z,100166.59
2022-08-10T19:04:04.308Z,100170.53
2022-08-10T19:07:26.697Z,100168.63
2022-08-10T19:10:19.204Z,100170.41
2022-08-10T19:13:00.846Z,100168.66
2022-08-10T19:16:12.407Z,100174.59
2022-08-10T19:19:22.467Z,100170.97
2022-08-10T19:22:06.448Z,100176.09
2022-08-10T19:25:09.162Z,100169.66
2022-08-10T19:28:06.321Z,100167.00
2022-08-10T19:30:53.193Z,100178.13
2022-08-10T19:33:35.492Z,100185.03
2022-08-10T19:36:46.014Z,100184.88
2022-08-10T19:39:54.289Z,100187.75
2022-08-10T19:42:39.167Z,100191.13
2022-08-10T19:45:55.855Z,100192.06
2022-08-10T19:48:47.666Z,100196.25
2022-08-10T19:51:43.381Z,100191.44
2022-08-10T19:54:36.084Z,100184.66
2022-08-10T19:57:25.618Z,100193.72
2022-08-10T20:00:19.667Z,100190.72
2022-08-10T20:03:15.907Z,100200.69
2022-08-10T20:06:19.535Z,100193.31
2022-08-10T20:09:08.870Z,100192.31
2022-08-10T20:12:02.565Z,100197.00
2022-08-10T20:14:46.306Z,100200.59
2022-08-10T20:17:52.832Z,100197.34
2022-08-10T20:21:03.277Z,100197.66
2022-08-10T20:23:39.894Z,100194.69
2022-08-10T20:26:25.369Z,100189.84
2022-08-10T20:29:25.028Z,100187.41
2022-08-10T20:32:37.796Z,100190.19
2022-08-10T20:35:14.840Z,100192.41
2022-08-10T20:38:03.843Z,100187.78
2022-08-10T20:40:52.274Z,100188.38
2022-08-10T20:44:03.761Z,100188.38
2022-08-10T20:46:58.849Z,100188.94
2022-08-10T20:49:54.602Z,100196.63
2022-08-10T20:52:25.882Z,100191.16
2022-08-10T20:55:00.102Z,100190.63
2022-08-10T20:57:54.646Z,100188.44
2022-08-10T21:00:51.439Z,100190.09
2022-08-10T21:03:42.858Z,100198.31
2022-08-10T21:06:44.056Z,100201.59
2022-08-10T21:09:44.207Z,100195.88
2022-08-10T21:12:49.488Z,100192.34
2022-08-10T21:15:49.714Z,100201.38
2022-08-10T21:18:36.230Z,100199.50
2022-08-10T21:21:41.680Z,100195.41
2022-08-10T21:24:21.320Z,100183.09
2022-08-10T21:27:13.248Z,100195.69
2022-08-10T21:30:09.432Z,100186.41
2022-08-10T21:33:00.456Z,100196.00
2022-08-10T21:35:53.013Z,100198.44
2022-08-10T21:38:54.871Z,100191.94
2022-08-10T21:42:07.503Z,100201.22
2022-08-10T21:45:54.867Z,100193.31
2022-08-10T21:49:09.709Z,100196.56
2022-08-10T21:52:33.694Z,100196.56
2022-08-10T21:56:00.368Z,100195.75
2022-08-10T21:59:08.275Z,100194.66
2022-08-10T22:02:03.328Z,100187.84
2022-08-10T22:04:51.644Z,100188.94
2022-08-10T22:07:40.486Z,100190.31
2022-08-10T22:10:29.954Z,100186.19
2022-08-10T22:13:21.249Z,100188.13
2022-08-10T22:16:16.204Z,100189.78
2022-08-10T22:19:14.925Z,100183.75
2022-08-10T22:22:19.751Z,100181.06
2022-08-10T22:25:52.001Z,100195.25
2022-08-10T22:28:38.854Z,100197.16
2022-08-10T22:31:44.195Z,100197.44
2022-08-10T22:35:29.171Z,100197.97
2022-08-10T22:38:37.594Z,100198.50
2022-08-10T22:42:14.900Z,100199.34
2022-08-10T22:45:05.842Z,100203.69
2022-08-10T22:47:52.519Z,100197.63
2022-08-10T22:50:24.732Z,100196.28
2022-08-10T22:53:07.595Z,100200.63
2022-08-10T22:56:12.521Z,100193.28
2022-08-10T22:58:44.416Z,100206.59
2022-08-10T23:01:42.154Z,100198.19
2022-08-10T23:04:35.938Z,100199.50
2022-08-10T23:07:14.165Z,100200.59
2022-08-10T23:09:42.657Z,100199.78
2022-08-10T23:12:20.486Z,100198.41
2022-08-10T23:14:59.945Z,100195.69
2022-08-10T23:18:00.603Z,100207.66
2022-08-10T23:20:31.029Z,100197.56
2022-08-10T23:23:09.104Z,100195.63
2022-08-10T23:25:57.030Z,100195.88
2022-08-10T23:28:55.522Z,100195.88
2022-08-10T23:32:01.282Z,100200.53
2022-08-10T23:34:06.372Z,100199.41
2022-08-10T23:36:37.304Z,100199.41
2022-08-10T23:39:27.416Z,100188.78
2022-08-10T23:42:06.373Z,100194.50
2022-08-10T23:44:44.977Z,100201.00
2022-08-10T23:47:17.473Z,100184.06
2022-08-10T23:49:46.527Z,100191.63
2022-08-10T23:52:20.262Z,100186.75
2022-08-10T23:55:09.052Z,100199.25
2022-08-10T23:57:42.701Z,100193.28
